sensor_id;sensor_type;location;lat;lon;timestamp;noise_LAeq;noise_LA_min;noise_LA_max;noise_LA01;noise_LA95
72858;Laerm;62742;52.136;4.500;2023-04-25T00:00:34;48.79;45.61;52.07;;
72858;Laerm;62742;52.136;4.500;2023-04-25T00:03:00;48.83;46.30;52.72;;
72858;Laerm;62742;52.136;4.500;2023-04-25T00:05:26;49.19;46.26;53.28;;
72858;Laerm;62742;52.136;4.500;2023-04-25T00:07:53;48.96;45.86;53.59;;
72858;Laerm;62742;52.136;4.500;2023-04-25T00:10:20;49.04;46.32;52.13;;
72858;Laerm;62742;52.136;4.500;2023-04-25T00:12:46;49.19;46.35;53.78;;
72858;Laerm;62742;52.136;4.500;2023-04-25T00:15:13;49.62;46.50;55.85;;
72858;Laerm;62742;52.136;4.500;2023-04-25T00:17:40;49.83;46.87;55.93;;
72858;Laerm;62742;52.136;4.500;2023-04-25T00:20:06;49.54;46.33;56.05;;
72858;Laerm;62742;52.136;4.500;2023-04-25T00:22:36;48.67;45.95;52.24;;
72858;Laerm;62742;52.136;4.500;2023-04-25T00:25:06;48.96;46.31;56.46;;
72858;Laerm;62742;52.136;4.500;2023-04-25T00:27:33;49.94;46.72;54.54;;
72858;Laerm;62742;52.136;4.500;2023-04-25T00:29:59;50.24;46.62;56.32;;
72858;Laerm;62742;52.136;4.500;2023-04-25T00:32:26;49.53;46.22;54.55;;
72858;Laerm;62742;52.136;4.500;2023-04-25T00:34:52;49.60;46.23;54.93;;
72858;Laerm;62742;52.136;4.500;2023-04-25T00:37:19;50.02;46.54;55.49;;
72858;Laerm;62742;52.136;4.500;2023-04-25T00:39:45;49.93;46.10;55.58;;
72858;Laerm;62742;52.136;4.500;2023-04-25T00:42:12;50.10;46.38;54.50;;
72858;Laerm;62742;52.136;4.500;2023-04-25T00:44:39;50.15;46.01;55.35;;
72858;Laerm;62742;52.136;4.500;2023-04-25T00:47:06;49.47;45.65;54.87;;
72858;Laerm;62742;52.136;4.500;2023-04-25T00:49:32;47.97;45.59;50.76;;
72858;Laerm;62742;52.136;4.500;2023-04-25T00:51:59;47.79;44.90;51.06;;
72858;Laerm;62742;52.136;4.500;2023-04-25T00:54:25;48.13;45.16;51.51;;
72858;Laerm;62742;52.136;4.500;2023-04-25T00:56:51;47.78;44.92;51.33;;
72858;Laerm;62742;52.136;4.500;2023-04-25T00:59:19;47.93;45.02;51.35;;
72858;Laerm;62742;52.136;4.500;2023-04-25T01:01:45;48.17;45.42;51.99;;
72858;Laerm;62742;52.136;4.500;2023-04-25T01:04:13;48.04;45.47;51.25;;
72858;Laerm;62742;52.136;4.500;2023-04-25T01:06:40;47.97;45.38;51.49;;
72858;Laerm;62742;52.136;4.500;2023-04-25T01:09:06;48.03;45.46;50.49;;
72858;Laerm;62742;52.136;4.500;2023-04-25T01:11:33;48.42;45.29;56.40;;
72858;Laerm;62742;52.136;4.500;2023-04-25T01:13:59;47.81;45.16;53.82;;
72858;Laerm;62742;52.136;4.500;2023-04-25T01:16:27;48.58;44.96;54.60;;
72858;Laerm;62742;52.136;4.500;2023-04-25T01:18:54;48.65;44.86;54.36;;
72858;Laerm;62742;52.136;4.500;2023-04-25T01:21:20;48.48;44.77;55.58;;
72858;Laerm;62742;52.136;4.500;2023-04-25T01:23:47;48.83;45.23;57.54;;
72858;Laerm;62742;52.136;4.500;2023-04-25T01:26:13;48.48;45.02;53.19;;
72858;Laerm;62742;52.136;4.500;2023-04-25T01:28:41;48.81;45.25;55.31;;
72858;Laerm;62742;52.136;4.500;2023-04-25T01:31:08;48.84;45.01;54.73;;
72858;Laerm;62742;52.136;4.500;2023-04-25T01:33:34;48.55;44.93;54.40;;
72858;Laerm;62742;52.136;4.500;2023-04-25T01:36:01;48.66;44.78;54.76;;
72858;Laerm;62742;52.136;4.500;2023-04-25T01:38:27;48.84;45.22;56.18;;
72858;Laerm;62742;52.136;4.500;2023-04-25T01:40:54;48.79;45.07;55.45;;
72858;Laerm;62742;52.136;4.500;2023-04-25T01:43:21;48.79;44.99;54.79;;
72858;Laerm;62742;52.136;4.500;2023-04-25T01:45:48;48.86;44.68;55.70;;
72858;Laerm;62742;52.136;4.500;2023-04-25T01:48:15;48.62;44.87;54.88;;
72858;Laerm;62742;52.136;4.500;2023-04-25T01:50:41;48.68;44.74;54.65;;
72858;Laerm;62742;52.136;4.500;2023-04-25T01:53:09;48.90;44.90;56.66;;
72858;Laerm;62742;52.136;4.500;2023-04-25T01:55:37;49.05;45.55;54.82;;
72858;Laerm;62742;52.136;4.500;2023-04-25T01:58:04;48.15;45.58;55.24;;
72858;Laerm;62742;52.136;4.500;2023-04-25T02:00:35;48.04;45.54;51.34;;
72858;Laerm;62742;52.136;4.500;2023-04-25T02:03:05;47.79;45.24;51.76;;
72858;Laerm;62742;52.136;4.500;2023-04-25T02:05:38;47.85;45.35;52.81;;
72858;Laerm;62742;52.136;4.500;2023-04-25T02:08:06;47.90;45.17;52.25;;
72858;Laerm;62742;52.136;4.500;2023-04-25T02:10:33;48.43;45.55;55.37;;
72858;Laerm;62742;52.136;4.500;2023-04-25T02:13:00;48.85;44.91;56.08;;
72858;Laerm;62742;52.136;4.500;2023-04-25T02:15:27;48.08;45.12;55.47;;
72858;Laerm;62742;52.136;4.500;2023-04-25T02:17:53;47.88;45.18;51.57;;
72858;Laerm;62742;52.136;4.500;2023-04-25T02:20:23;47.75;45.29;51.13;;
72858;Laerm;62742;52.136;4.500;2023-04-25T02:22:51;48.22;45.28;53.23;;
72858;Laerm;62742;52.136;4.500;2023-04-25T02:25:19;48.03;45.52;51.50;;
72858;Laerm;62742;52.136;4.500;2023-04-25T02:27:47;47.95;45.60;52.41;;
72858;Laerm;62742;52.136;4.500;2023-04-25T02:30:13;47.81;45.13;51.60;;
72858;Laerm;62742;52.136;4.500;2023-04-25T02:32:40;48.86;44.81;55.39;;
72858;Laerm;62742;52.136;4.500;2023-04-25T02:35:07;48.66;43.66;55.93;;
72858;Laerm;62742;52.136;4.500;2023-04-25T02:37:34;47.84;44.94;51.20;;
72858;Laerm;62742;52.136;4.500;2023-04-25T02:40:01;48.33;44.08;55.05;;
72858;Laerm;62742;52.136;4.500;2023-04-25T02:42:29;49.07;44.94;55.07;;
72858;Laerm;62742;52.136;4.500;2023-04-25T02:44:55;49.33;45.30;55.91;;
72858;Laerm;62742;52.136;4.500;2023-04-25T02:47:21;48.03;45.39;53.83;;
72858;Laerm;62742;52.136;4.500;2023-04-25T02:49:48;49.33;44.91;55.33;;
72858;Laerm;62742;52.136;4.500;2023-04-25T02:52:14;49.22;43.65;54.75;;
72858;Laerm;62742;52.136;4.500;2023-04-25T02:54:40;48.95;44.30;54.81;;
72858;Laerm;62742;52.136;4.500;2023-04-25T02:57:07;49.58;45.56;55.82;;
72858;Laerm;62742;52.136;4.500;2023-04-25T02:59:33;48.70;45.25;55.23;;
72858;Laerm;62742;52.136;4.500;2023-04-25T03:02:00;48.21;44.74;54.33;;
72858;Laerm;62742;52.136;4.500;2023-04-25T03:04:27;48.12;44.90;54.30;;
72858;Laerm;62742;52.136;4.500;2023-04-25T03:06:53;49.24;45.41;55.97;;
72858;Laerm;62742;52.136;4.500;2023-04-25T03:09:19;49.58;45.93;54.81;;
72858;Laerm;62742;52.136;4.500;2023-04-25T03:11:46;49.73;46.30;55.79;;
72858;Laerm;62742;52.136;4.500;2023-04-25T03:14:13;49.66;46.37;55.53;;
72858;Laerm;62742;52.136;4.500;2023-04-25T03:16:39;49.85;46.34;53.93;;
72858;Laerm;62742;52.136;4.500;2023-04-25T03:19:06;49.71;45.55;54.92;;
72858;Laerm;62742;52.136;4.500;2023-04-25T03:21:34;49.89;43.88;55.06;;
72858;Laerm;62742;52.136;4.500;2023-04-25T03:24:02;50.10;46.69;55.64;;
72858;Laerm;62742;52.136;4.500;2023-04-25T03:26:28;50.07;46.49;54.94;;
72858;Laerm;62742;52.136;4.500;2023-04-25T03:28:55;49.80;46.03;54.10;;
72858;Laerm;62742;52.136;4.500;2023-04-25T03:31:21;49.94;46.70;54.41;;
72858;Laerm;62742;52.136;4.500;2023-04-25T03:33:48;50.33;46.65;55.09;;
72858;Laerm;62742;52.136;4.500;2023-04-25T03:36:14;50.60;46.77;55.51;;
72858;Laerm;62742;52.136;4.500;2023-04-25T03:38:40;50.35;46.75;55.31;;
72858;Laerm;62742;52.136;4.500;2023-04-25T03:41:10;50.31;46.52;55.68;;
72858;Laerm;62742;52.136;4.500;2023-04-25T03:43:37;49.54;43.89;55.64;;
72858;Laerm;62742;52.136;4.500;2023-04-25T03:46:03;48.16;45.66;52.56;;
72858;Laerm;62742;52.136;4.500;2023-04-25T03:48:29;48.21;45.27;51.42;;
72858;Laerm;62742;52.136;4.500;2023-04-25T03:50:55;47.83;45.34;50.99;;
72858;Laerm;62742;52.136;4.500;2023-04-25T03:53:21;48.02;45.39;51.37;;
72858;Laerm;62742;52.136;4.500;2023-04-25T03:55:48;48.14;45.40;52.67;;
72858;Laerm;62742;52.136;4.500;2023-04-25T03:58:14;48.18;45.48;51.53;;
72858;Laerm;62742;52.136;4.500;2023-04-25T04:00:40;48.18;45.69;52.47;;
72858;Laerm;62742;52.136;4.500;2023-04-25T04:03:06;48.40;45.86;51.62;;
72858;Laerm;62742;52.136;4.500;2023-04-25T04:05:32;48.57;44.79;52.42;;
72858;Laerm;62742;52.136;4.500;2023-04-25T04:07:59;49.02;45.99;54.43;;
72858;Laerm;62742;52.136;4.500;2023-04-25T04:10:25;50.15;45.54;54.69;;
72858;Laerm;62742;52.136;4.500;2023-04-25T04:12:53;49.62;45.06;54.95;;
72858;Laerm;62742;52.136;4.500;2023-04-25T04:15:19;49.89;45.24;54.45;;
72858;Laerm;62742;52.136;4.500;2023-04-25T04:17:45;49.79;45.52;55.22;;
72858;Laerm;62742;52.136;4.500;2023-04-25T04:20:12;49.80;45.26;55.56;;
72858;Laerm;62742;52.136;4.500;2023-04-25T04:22:38;49.46;46.04;55.03;;
72858;Laerm;62742;52.136;4.500;2023-04-25T04:25:05;48.22;45.31;52.95;;
72858;Laerm;62742;52.136;4.500;2023-04-25T04:27:31;48.26;45.40;51.83;;
72858;Laerm;62742;52.136;4.500;2023-04-25T04:29:58;49.16;45.58;55.25;;
72858;Laerm;62742;52.136;4.500;2023-04-25T04:32:24;49.62;46.43;57.79;;
72858;Laerm;62742;52.136;4.500;2023-04-25T04:34:51;48.55;45.46;54.54;;
72858;Laerm;62742;52.136;4.500;2023-04-25T04:37:22;48.09;45.13;52.33;;
72858;Laerm;62742;52.136;4.500;2023-04-25T04:39:49;49.28;45.34;54.58;;
72858;Laerm;62742;52.136;4.500;2023-04-25T04:42:16;49.80;44.23;55.47;;
72858;Laerm;62742;52.136;4.500;2023-04-25T04:44:43;49.82;44.96;55.67;;
72858;Laerm;62742;52.136;4.500;2023-04-25T04:47:10;49.43;44.03;56.21;;
72858;Laerm;62742;52.136;4.500;2023-04-25T04:49:38;49.60;45.62;55.33;;
72858;Laerm;62742;52.136;4.500;2023-04-25T04:52:04;49.79;46.19;56.03;;
72858;Laerm;62742;52.136;4.500;2023-04-25T04:54:30;49.73;45.76;55.13;;
72858;Laerm;62742;52.136;4.500;2023-04-25T04:56:57;49.90;46.00;56.08;;
72858;Laerm;62742;52.136;4.500;2023-04-25T04:59:23;49.89;45.53;55.34;;
72858;Laerm;62742;52.136;4.500;2023-04-25T05:01:49;49.86;46.02;54.44;;
72858;Laerm;62742;52.136;4.500;2023-04-25T05:04:15;50.21;45.97;54.79;;
72858;Laerm;62742;52.136;4.500;2023-04-25T05:06:45;49.03;45.10;56.15;;
72858;Laerm;62742;52.136;4.500;2023-04-25T05:09:11;47.96;44.67;52.14;;
72858;Laerm;62742;52.136;4.500;2023-04-25T05:11:37;48.13;44.66;51.60;;
72858;Laerm;62742;52.136;4.500;2023-04-25T05:14:03;48.87;45.02;55.52;;
72858;Laerm;62742;52.136;4.500;2023-04-25T05:16:30;48.96;45.18;55.36;;
72858;Laerm;62742;52.136;4.500;2023-04-25T05:18:57;48.85;44.36;55.04;;
72858;Laerm;62742;52.136;4.500;2023-04-25T05:21:23;48.79;44.10;55.11;;
72858;Laerm;62742;52.136;4.500;2023-04-25T05:23:49;48.93;44.73;54.85;;
72858;Laerm;62742;52.136;4.500;2023-04-25T05:26:15;49.10;44.74;56.01;;
72858;Laerm;62742;52.136;4.500;2023-04-25T05:28:42;48.79;44.74;56.29;;
72858;Laerm;62742;52.136;4.500;2023-04-25T05:31:11;49.11;44.43;56.90;;
72858;Laerm;62742;52.136;4.500;2023-04-25T05:33:38;49.28;45.03;55.39;;
72858;Laerm;62742;52.136;4.500;2023-04-25T05:36:04;48.91;44.63;56.35;;
72858;Laerm;62742;52.136;4.500;2023-04-25T05:38:30;48.62;43.46;55.62;;
72858;Laerm;62742;52.136;4.500;2023-04-25T05:40:57;48.39;45.56;52.48;;
72858;Laerm;62742;52.136;4.500;2023-04-25T05:43:23;48.51;45.20;51.86;;
72858;Laerm;62742;52.136;4.500;2023-04-25T05:45:49;48.69;44.72;53.58;;
72858;Laerm;62742;52.136;4.500;2023-04-25T05:48:16;48.37;45.24;51.02;;
72858;Laerm;62742;52.136;4.500;2023-04-25T05:50:42;48.39;45.41;51.08;;
72858;Laerm;62742;52.136;4.500;2023-04-25T05:53:09;48.69;45.62;51.50;;
72858;Laerm;62742;52.136;4.500;2023-04-25T05:55:35;48.99;45.96;51.49;;
72858;Laerm;62742;52.136;4.500;2023-04-25T05:58:01;48.98;46.45;51.73;;
72858;Laerm;62742;52.136;4.500;2023-04-25T06:00:27;48.87;45.80;51.39;;
72858;Laerm;62742;52.136;4.500;2023-04-25T06:02:53;48.66;45.97;51.46;;
72858;Laerm;62742;52.136;4.500;2023-04-25T06:05:20;48.97;45.94;52.75;;
72858;Laerm;62742;52.136;4.500;2023-04-25T06:07:46;49.17;44.55;55.15;;
72858;Laerm;62742;52.136;4.500;2023-04-25T06:10:12;49.62;45.84;55.31;;
72858;Laerm;62742;52.136;4.500;2023-04-25T06:12:38;51.26;46.78;56.45;;
72858;Laerm;62742;52.136;4.500;2023-04-25T06:15:05;51.04;46.24;56.22;;
72858;Laerm;62742;52.136;4.500;2023-04-25T06:17:32;50.47;46.76;55.79;;
72858;Laerm;62742;52.136;4.500;2023-04-25T06:19:59;50.62;45.24;55.78;;
72858;Laerm;62742;52.136;4.500;2023-04-25T06:22:25;49.34;44.84;53.80;;
72858;Laerm;62742;52.136;4.500;2023-04-25T06:24:51;48.81;45.44;52.40;;
72858;Laerm;62742;52.136;4.500;2023-04-25T06:27:18;48.60;45.02;51.57;;
72858;Laerm;62742;52.136;4.500;2023-04-25T06:29:44;47.85;43.94;51.19;;
72858;Laerm;62742;52.136;4.500;2023-04-25T06:32:10;48.21;44.86;51.75;;
72858;Laerm;62742;52.136;4.500;2023-04-25T06:34:36;48.55;44.88;51.64;;
72858;Laerm;62742;52.136;4.500;2023-04-25T06:37:03;48.07;44.88;50.90;;
72858;Laerm;62742;52.136;4.500;2023-04-25T06:39:29;47.95;45.15;50.87;;
72858;Laerm;62742;52.136;4.500;2023-04-25T06:41:55;48.03;45.10;50.67;;
72858;Laerm;62742;52.136;4.500;2023-04-25T06:44:21;48.24;45.02;50.81;;
72858;Laerm;62742;52.136;4.500;2023-04-25T06:46:49;48.45;45.37;50.76;;
72858;Laerm;62742;52.136;4.500;2023-04-25T06:49:16;48.62;45.72;50.88;;
72858;Laerm;62742;52.136;4.500;2023-04-25T06:51:42;48.31;43.98;55.13;;
72858;Laerm;62742;52.136;4.500;2023-04-25T06:54:08;48.13;43.50;56.77;;
72858;Laerm;62742;52.136;4.500;2023-04-25T06:56:34;47.84;42.64;58.56;;
72858;Laerm;62742;52.136;4.500;2023-04-25T06:59:01;47.59;44.95;53.05;;
72858;Laerm;62742;52.136;4.500;2023-04-25T07:01:27;48.75;43.74;58.10;;
72858;Laerm;62742;52.136;4.500;2023-04-25T07:03:53;48.93;42.97;59.06;;
72858;Laerm;62742;52.136;4.500;2023-04-25T07:06:19;48.29;43.81;58.36;;
72858;Laerm;62742;52.136;4.500;2023-04-25T07:08:46;48.75;44.25;59.04;;
72858;Laerm;62742;52.136;4.500;2023-04-25T07:11:12;49.03;43.23;59.66;;
72858;Laerm;62742;52.136;4.500;2023-04-25T07:13:38;48.76;43.54;60.44;;
72858;Laerm;62742;52.136;4.500;2023-04-25T07:16:04;48.71;43.17;61.01;;
72858;Laerm;62742;52.136;4.500;2023-04-25T07:18:31;48.84;42.87;62.61;;
72858;Laerm;62742;52.136;4.500;2023-04-25T07:20:57;50.03;43.45;62.31;;
72858;Laerm;62742;52.136;4.500;2023-04-25T07:23:23;50.52;42.12;62.56;;
72858;Laerm;62742;52.136;4.500;2023-04-25T07:25:49;50.58;42.53;62.39;;
72858;Laerm;62742;52.136;4.500;2023-04-25T07:28:16;50.14;42.31;62.44;;
72858;Laerm;62742;52.136;4.500;2023-04-25T07:30:42;50.31;42.20;63.12;;
72858;Laerm;62742;52.136;4.500;2023-04-25T07:33:08;50.22;41.61;63.23;;
72858;Laerm;62742;52.136;4.500;2023-04-25T07:35:34;50.90;42.32;62.94;;
72858;Laerm;62742;52.136;4.500;2023-04-25T07:38:02;49.99;42.02;62.80;;
72858;Laerm;62742;52.136;4.500;2023-04-25T07:40:29;51.01;41.48;62.93;;
72858;Laerm;62742;52.136;4.500;2023-04-25T07:42:55;51.07;41.91;62.16;;
72858;Laerm;62742;52.136;4.500;2023-04-25T07:45:22;51.57;42.52;63.28;;
72858;Laerm;62742;52.136;4.500;2023-04-25T07:47:48;51.87;42.98;63.31;;
72858;Laerm;62742;52.136;4.500;2023-04-25T07:50:14;52.03;43.27;62.96;;
72858;Laerm;62742;52.136;4.500;2023-04-25T07:52:40;51.15;43.10;62.94;;
72858;Laerm;62742;52.136;4.500;2023-04-25T07:55:07;51.80;43.21;63.60;;
72858;Laerm;62742;52.136;4.500;2023-04-25T07:57:33;50.86;42.62;63.60;;
72858;Laerm;62742;52.136;4.500;2023-04-25T07:59:59;51.72;42.75;62.79;;
72858;Laerm;62742;52.136;4.500;2023-04-25T08:02:25;50.94;42.32;62.87;;
72858;Laerm;62742;52.136;4.500;2023-04-25T08:04:55;50.14;42.60;64.29;;
72858;Laerm;62742;52.136;4.500;2023-04-25T08:07:21;50.62;42.72;62.62;;
72858;Laerm;62742;52.136;4.500;2023-04-25T08:09:47;49.97;41.98;63.75;;
72858;Laerm;62742;52.136;4.500;2023-04-25T08:12:14;50.93;42.73;63.63;;
72858;Laerm;62742;52.136;4.500;2023-04-25T08:14:40;51.20;41.84;63.03;;
72858;Laerm;62742;52.136;4.500;2023-04-25T08:17:06;50.58;42.92;63.29;;
72858;Laerm;62742;52.136;4.500;2023-04-25T08:19:32;48.50;42.76;60.98;;
72858;Laerm;62742;52.136;4.500;2023-04-25T08:21:58;48.63;42.79;60.49;;
72858;Laerm;62742;52.136;4.500;2023-04-25T08:24:25;49.60;42.36;63.15;;
72858;Laerm;62742;52.136;4.500;2023-04-25T08:26:51;48.88;42.85;61.55;;
72858;Laerm;62742;52.136;4.500;2023-04-25T08:29:17;48.92;42.61;61.10;;
72858;Laerm;62742;52.136;4.500;2023-04-25T08:31:44;49.20;43.03;60.48;;
72858;Laerm;62742;52.136;4.500;2023-04-25T08:34:10;49.22;43.60;61.64;;
72858;Laerm;62742;52.136;4.500;2023-04-25T08:36:37;49.87;43.49;60.63;;
72858;Laerm;62742;52.136;4.500;2023-04-25T08:39:03;49.86;43.43;59.88;;
72858;Laerm;62742;52.136;4.500;2023-04-25T08:41:29;49.76;44.14;60.73;;
72858;Laerm;62742;52.136;4.500;2023-04-25T08:43:56;50.24;43.65;61.29;;
72858;Laerm;62742;52.136;4.500;2023-04-25T08:46:23;50.40;44.48;60.31;;
72858;Laerm;62742;52.136;4.500;2023-04-25T08:48:53;50.49;43.01;61.74;;
72858;Laerm;62742;52.136;4.500;2023-04-25T08:51:23;49.90;43.17;61.26;;
72858;Laerm;62742;52.136;4.500;2023-04-25T08:53:53;50.14;43.38;61.32;;
72858;Laerm;62742;52.136;4.500;2023-04-25T08:56:20;48.98;42.84;60.89;;
72858;Laerm;62742;52.136;4.500;2023-04-25T08:58:49;49.20;43.14;60.94;;
72858;Laerm;62742;52.136;4.500;2023-04-25T09:01:18;49.91;42.56;61.68;;
72858;Laerm;62742;52.136;4.500;2023-04-25T09:03:45;49.76;42.41;61.26;;
72858;Laerm;62742;52.136;4.500;2023-04-25T09:06:13;49.77;43.43;60.00;;
72858;Laerm;62742;52.136;4.500;2023-04-25T09:08:42;48.88;42.13;60.36;;
72858;Laerm;62742;52.136;4.500;2023-04-25T09:11:08;49.08;42.76;60.83;;
72858;Laerm;62742;52.136;4.500;2023-04-25T09:13:34;49.66;43.24;60.55;;
72858;Laerm;62742;52.136;4.500;2023-04-25T09:16:02;49.10;43.27;60.83;;
72858;Laerm;62742;52.136;4.500;2023-04-25T09:18:30;48.65;42.88;59.39;;
72858;Laerm;62742;52.136;4.500;2023-04-25T09:21:05;48.97;43.65;59.40;;
72858;Laerm;62742;52.136;4.500;2023-04-25T09:23:43;48.59;42.58;60.14;;
72858;Laerm;62742;52.136;4.500;2023-04-25T09:26:10;49.34;43.06;59.74;;
72858;Laerm;62742;52.136;4.500;2023-04-25T09:28:39;48.99;43.81;59.31;;
72858;Laerm;62742;52.136;4.500;2023-04-25T09:31:05;49.88;43.80;59.95;;
72858;Laerm;62742;52.136;4.500;2023-04-25T09:33:33;49.64;43.92;60.72;;
72858;Laerm;62742;52.136;4.500;2023-04-25T09:36:11;49.10;43.47;60.07;;
72858;Laerm;62742;52.136;4.500;2023-04-25T09:38:43;49.03;43.39;59.95;;
72858;Laerm;62742;52.136;4.500;2023-04-25T09:41:10;50.23;42.87;61.15;;
72858;Laerm;62742;52.136;4.500;2023-04-25T09:43:37;50.35;43.21;60.88;;
72858;Laerm;62742;52.136;4.500;2023-04-25T09:46:10;50.72;43.47;61.15;;
72858;Laerm;62742;52.136;4.500;2023-04-25T09:48:37;50.20;43.52;60.69;;
72858;Laerm;62742;52.136;4.500;2023-04-25T09:51:12;49.95;42.78;60.82;;
72858;Laerm;62742;52.136;4.500;2023-04-25T09:53:44;51.13;42.98;61.22;;
72858;Laerm;62742;52.136;4.500;2023-04-25T09:56:19;50.53;42.44;60.36;;
72858;Laerm;62742;52.136;4.500;2023-04-25T09:58:50;49.73;42.95;60.21;;
72858;Laerm;62742;52.136;4.500;2023-04-25T10:01:21;47.76;44.73;51.62;;
72858;Laerm;62742;52.136;4.500;2023-04-25T10:03:50;47.60;44.53;50.77;;
72858;Laerm;62742;52.136;4.500;2023-04-25T10:06:22;47.47;44.30;52.21;;
72858;Laerm;62742;52.136;4.500;2023-04-25T10:08:51;47.92;44.15;52.36;;
72858;Laerm;62742;52.136;4.500;2023-04-25T10:11:20;49.61;43.29;59.84;;
72858;Laerm;62742;52.136;4.500;2023-04-25T10:13:49;50.03;43.40;60.43;;
72858;Laerm;62742;52.136;4.500;2023-04-25T10:16:16;50.54;43.34;60.27;;
72858;Laerm;62742;52.136;4.500;2023-04-25T10:18:43;50.71;43.38;59.74;;
72858;Laerm;62742;52.136;4.500;2023-04-25T10:21:10;50.74;43.09;59.67;;
72858;Laerm;62742;52.136;4.500;2023-04-25T10:23:37;50.14;43.94;59.48;;
72858;Laerm;62742;52.136;4.500;2023-04-25T10:26:04;50.49;43.52;59.31;;
72858;Laerm;62742;52.136;4.500;2023-04-25T10:28:59;50.17;42.61;60.20;;
72858;Laerm;62742;52.136;4.500;2023-04-25T10:31:30;49.97;42.80;59.47;;
72858;Laerm;62742;52.136;4.500;2023-04-25T10:33:57;49.75;42.73;59.36;;
72858;Laerm;62742;52.136;4.500;2023-04-25T10:36:24;49.89;43.23;59.02;;
72858;Laerm;62742;52.136;4.500;2023-04-25T10:38:52;50.01;43.07;58.70;;
72858;Laerm;62742;52.136;4.500;2023-04-25T10:41:21;48.66;43.09;58.47;;
72858;Laerm;62742;52.136;4.500;2023-04-25T10:43:50;48.81;43.51;58.28;;
72858;Laerm;62742;52.136;4.500;2023-04-25T10:46:26;48.50;43.49;57.85;;
72858;Laerm;62742;52.136;4.500;2023-04-25T10:48:57;48.43;43.49;57.01;;
72858;Laerm;62742;52.136;4.500;2023-04-25T10:51:29;47.67;43.74;56.44;;
72858;Laerm;62742;52.136;4.500;2023-04-25T10:54:06;48.09;43.74;57.52;;
72858;Laerm;62742;52.136;4.500;2023-04-25T10:59:05;47.90;43.66;58.08;;
72858;Laerm;62742;52.136;4.500;2023-04-25T11:01:39;48.30;43.72;57.28;;
72858;Laerm;62742;52.136;4.500;2023-04-25T11:04:06;49.01;44.88;57.95;;
72858;Laerm;62742;52.136;4.500;2023-04-25T11:09:23;47.10;43.88;57.70;;
72858;Laerm;62742;52.136;4.500;2023-04-25T11:11:57;49.03;43.54;58.97;;
72858;Laerm;62742;52.136;4.500;2023-04-25T11:14:24;48.74;44.02;58.62;;
72858;Laerm;62742;52.136;4.500;2023-04-25T11:16:57;49.04;43.31;58.71;;
72858;Laerm;62742;52.136;4.500;2023-04-25T11:19:25;48.87;43.96;59.13;;
72858;Laerm;62742;52.136;4.500;2023-04-25T11:21:59;48.32;43.48;58.38;;
72858;Laerm;62742;52.136;4.500;2023-04-25T11:24:33;48.80;43.52;58.64;;
72858;Laerm;62742;52.136;4.500;2023-04-25T11:27:03;48.75;44.00;58.67;;
72858;Laerm;62742;52.136;4.500;2023-04-25T11:29:31;48.45;43.80;58.11;;
72858;Laerm;62742;52.136;4.500;2023-04-25T11:32:00;49.00;43.62;58.07;;
72858;Laerm;62742;52.136;4.500;2023-04-25T11:34:32;48.33;43.34;58.62;;
72858;Laerm;62742;52.136;4.500;2023-04-25T11:37:00;48.36;43.27;58.11;;
72858;Laerm;62742;52.136;4.500;2023-04-25T11:39:28;48.09;43.35;57.52;;
72858;Laerm;62742;52.136;4.500;2023-04-25T11:41:54;48.06;43.47;58.26;;
72858;Laerm;62742;52.136;4.500;2023-04-25T11:44:21;48.09;43.48;57.01;;
72858;Laerm;62742;52.136;4.500;2023-04-25T11:46:48;48.78;44.16;56.95;;
72858;Laerm;62742;52.136;4.500;2023-04-25T11:49:14;48.74;44.53;57.05;;
72858;Laerm;62742;52.136;4.500;2023-04-25T11:51:47;48.86;43.89;57.66;;
72858;Laerm;62742;52.136;4.500;2023-04-25T11:54:14;49.58;44.25;58.34;;
72858;Laerm;62742;52.136;4.500;2023-04-25T11:56:44;48.71;44.85;57.63;;
72858;Laerm;62742;52.136;4.500;2023-04-25T11:59:11;48.84;44.72;58.01;;
72858;Laerm;62742;52.136;4.500;2023-04-25T12:01:46;49.22;45.22;57.19;;
72858;Laerm;62742;52.136;4.500;2023-04-25T12:04:15;49.11;44.42;56.40;;
72858;Laerm;62742;52.136;4.500;2023-04-25T12:06:45;49.50;45.21;58.02;;
72858;Laerm;62742;52.136;4.500;2023-04-25T12:09:18;48.81;44.77;57.60;;
72858;Laerm;62742;52.136;4.500;2023-04-25T12:11:53;49.24;44.68;57.29;;
72858;Laerm;62742;52.136;4.500;2023-04-25T12:14:26;48.81;44.63;57.17;;
72858;Laerm;62742;52.136;4.500;2023-04-25T12:16:55;48.52;43.73;57.66;;
72858;Laerm;62742;52.136;4.500;2023-04-25T12:19:21;48.55;44.19;57.21;;
72858;Laerm;62742;52.136;4.500;2023-04-25T12:21:49;49.03;44.37;56.54;;
72858;Laerm;62742;52.136;4.500;2023-04-25T12:24:22;48.80;44.23;56.81;;
72858;Laerm;62742;52.136;4.500;2023-04-25T12:26:58;49.09;43.92;58.09;;
72858;Laerm;62742;52.136;4.500;2023-04-25T12:29:27;48.67;43.19;57.04;;
72858;Laerm;62742;52.136;4.500;2023-04-25T12:31:54;48.84;43.33;57.43;;
72858;Laerm;62742;52.136;4.500;2023-04-25T12:34:22;48.97;43.88;57.67;;
72858;Laerm;62742;52.136;4.500;2023-04-25T12:36:49;48.21;43.85;55.41;;
72858;Laerm;62742;52.136;4.500;2023-04-25T12:41:43;48.84;43.94;57.53;;
72858;Laerm;62742;52.136;4.500;2023-04-25T12:44:10;48.08;44.53;53.73;;
72858;Laerm;62742;52.136;4.500;2023-04-25T12:46:38;47.81;44.01;53.48;;
72858;Laerm;62742;52.136;4.500;2023-04-25T12:49:04;48.05;44.78;55.37;;
72858;Laerm;62742;52.136;4.500;2023-04-25T12:51:36;49.01;44.22;55.88;;
72858;Laerm;62742;52.136;4.500;2023-04-25T12:54:04;48.61;44.62;54.20;;
72858;Laerm;62742;52.136;4.500;2023-04-25T12:56:31;49.30;44.74;55.16;;
72858;Laerm;62742;52.136;4.500;2023-04-25T12:58:58;48.50;44.27;54.46;;
72858;Laerm;62742;52.136;4.500;2023-04-25T13:01:25;48.42;44.03;54.41;;
72858;Laerm;62742;52.136;4.500;2023-04-25T13:03:52;48.23;44.43;54.49;;
72858;Laerm;62742;52.136;4.500;2023-04-25T13:06:19;47.48;43.09;53.53;;
72858;Laerm;62742;52.136;4.500;2023-04-25T13:08:46;47.72;43.66;52.34;;
72858;Laerm;62742;52.136;4.500;2023-04-25T13:11:12;47.87;44.49;52.36;;
72858;Laerm;62742;52.136;4.500;2023-04-25T13:13:40;48.26;44.05;57.98;;
72858;Laerm;62742;52.136;4.500;2023-04-25T13:16:07;48.45;44.39;54.13;;
72858;Laerm;62742;52.136;4.500;2023-04-25T13:18:34;49.76;44.30;56.93;;
72858;Laerm;62742;52.136;4.500;2023-04-25T13:21:00;49.79;44.11;58.00;;
72858;Laerm;62742;52.136;4.500;2023-04-25T13:23:28;49.53;44.14;57.70;;
72858;Laerm;62742;52.136;4.500;2023-04-25T13:25:55;49.23;44.13;56.40;;
72858;Laerm;62742;52.136;4.500;2023-04-25T13:28:24;50.14;45.06;57.65;;
72858;Laerm;62742;52.136;4.500;2023-04-25T13:30:51;49.51;44.02;57.94;;
72858;Laerm;62742;52.136;4.500;2023-04-25T13:33:18;50.99;44.81;59.22;;
72858;Laerm;62742;52.136;4.500;2023-04-25T13:35:44;50.25;45.12;58.69;;
72858;Laerm;62742;52.136;4.500;2023-04-25T13:38:20;49.38;44.39;56.92;;
72858;Laerm;62742;52.136;4.500;2023-04-25T13:40:49;50.23;44.12;58.09;;
72858;Laerm;62742;52.136;4.500;2023-04-25T13:43:21;50.83;44.52;59.70;;
72858;Laerm;62742;52.136;4.500;2023-04-25T13:45:48;50.93;44.19;59.69;;
72858;Laerm;62742;52.136;4.500;2023-04-25T13:48:15;50.85;44.56;59.94;;
72858;Laerm;62742;52.136;4.500;2023-04-25T13:50:41;51.86;44.52;60.43;;
72858;Laerm;62742;52.136;4.500;2023-04-25T13:53:07;52.76;45.11;60.61;;